Time,TemperatureF,DewpointF,PressureIn,WindDirection,WindDirectionDegrees,WindSpeedMPH,WindSpeedGustMPH,Humidity,HourlyPrecipIn,Conditions,Clouds,dailyrainin,SoftwareType,DateUTC
2013-08-07 00:00:00,77.0,75.0,29.94,West,262,0.0,0.0,93,0.00,,,0.04,weatherlink.com 1.10,2013-08-07 04:00:00,
2013-08-07 00:15:00,76.8,75.0,29.94,West,262,0.0,0.0,93,0.00,,,0.00,weatherlink.com 1.10,2013-08-07 04:15:00,
2013-08-07 00:30:00,76.8,75.0,29.94,West,262,0.0,0.0,94,0.00,,,0.00,weatherlink.com 1.10,2013-08-07 04:30:00,
2013-08-07 00:45:00,76.6,75.0,29.94,West,262,0.0,0.0,94,0.00,,,0.00,weatherlink.com 1.10,2013-08-07 04:45:00,
2013-08-07 01:00:00,76.5,75.0,29.93,West,262,0.0,0.0,94,0.00,,,0.00,weatherlink.com 1.10,2013-08-07 05:00:00,
2013-08-07 01:15:00,76.2,74.0,29.93,West,262,0.0,0.0,94,0.00,,,0.00,weatherlink.com 1.10,2013-08-07 05:15:00,
2013-08-07 01:30:00,76.1,74.0,29.94,West,262,0.0,0.0,94,0.00,,,0.00,weatherlink.com 1.10,2013-08-07 05:30:00,
2013-08-07 01:45:00,76.0,74.0,29.93,West,262,0.0,0.0,94,0.00,,,0.00,weatherlink.com 1.10,2013-08-07 05:45:00,
2013-08-07 02:00:00,76.0,75.0,29.93,West,262,0.0,1.0,95,0.00,,,0.00,weatherlink.com 1.10,2013-08-07 06:00:00,
2013-08-07 02:15:00,76.6,75.0,29.92,NE,44,0.0,2.0,95,0.00,,,0.00,weatherlink.com 1.10,2013-08-07 06:15:00,
2013-08-07 02:30:00,76.6,75.0,29.92,NE,56,0.0,1.0,95,0.00,,,0.00,weatherlink.com 1.10,2013-08-07 06:30:00,
2013-08-07 02:45:00,76.6,75.0,29.92,NE,56,0.0,1.0,95,0.00,,,0.00,weatherlink.com 1.10,2013-08-07 06:45:00,
2013-08-07 03:01:00,76.8,75.0,29.91,ENE,63,0.0,2.0,95,0.00,,,0.00,weatherlink.com 1.10,2013-08-07 07:01:00,
2013-08-07 03:15:00,76.9,75.0,29.91,ENE,69,0.0,3.0,95,0.00,,,0.00,weatherlink.com 1.10,2013-08-07 07:15:00,
2013-08-07 03:30:00,76.9,75.0,29.91,ENE,69,0.0,1.0,95,0.00,,,0.00,weatherlink.com 1.10,2013-08-07 07:30:00,
2013-08-07 03:45:00,77.1,76.0,29.90,NE,54,1.0,2.0,95,0.00,,,0.00,weatherlink.com 1.10,2013-08-07 07:45:00,
2013-08-07 04:00:00,77.1,76.0,29.90,NE,54,0.0,1.0,95,0.00,,,0.00,weatherlink.com 1.10,2013-08-07 08:00:00,
2013-08-07 04:15:00,77.0,76.0,29.90,NE,54,0.0,0.0,95,0.00,,,0.00,weatherlink.com 1.10,2013-08-07 08:15:00,
2013-08-07 04:30:00,76.8,75.0,29.90,NE,54,0.0,0.0,95,0.00,,,0.00,weatherlink.com 1.10,2013-08-07 08:30:00,
2013-08-07 04:45:00,76.6,75.0,29.90,NE,54,0.0,0.0,96,0.00,,,0.00,weatherlink.com 1.10,2013-08-07 08:45:00,
2013-08-07 05:00:00,76.4,75.0,29.91,NE,54,0.0,0.0,96,0.00,,,0.00,weatherlink.com 1.10,2013-08-07 09:00:00,
2013-08-07 05:15:00,76.4,75.0,29.90,NE,54,0.0,0.0,96,0.00,,,0.00,weatherlink.com 1.10,2013-08-07 09:15:00,
2013-08-07 05:30:00,76.6,75.0,29.91,NE,54,0.0,1.0,96,0.00,,,0.00,weatherlink.com 1.10,2013-08-07 09:30:00,
2013-08-07 05:45:00,76.7,76.0,29.91,NE,54,0.0,0.0,96,0.00,,,0.00,weatherlink.com 1.10,2013-08-07 09:45:00,
2013-08-07 06:00:00,76.6,75.0,29.91,NE,54,0.0,1.0,96,0.00,,,0.00,weatherlink.com 1.10,2013-08-07 10:00:00,
2013-08-07 06:15:00,77.0,76.0,29.91,NE,54,0.0,1.0,96,0.00,,,0.00,weatherlink.com 1.10,2013-08-07 10:15:00,
2013-08-07 06:30:00,77.1,76.0,29.91,NE,54,0.0,2.0,97,0.00,,,0.00,weatherlink.com 1.10,2013-08-07 10:30:00,
2013-08-07 06:45:00,77.1,76.0,29.91,NE,54,0.0,1.0,97,0.00,,,0.00,weatherlink.com 1.10,2013-08-07 10:45:00,
2013-08-07 07:00:00,77.1,76.0,29.92,ENE,57,2.0,2.0,97,0.00,,,0.00,weatherlink.com 1.10,2013-08-07 11:00:00,
2013-08-07 07:15:00,77.2,76.0,29.93,ENE,57,0.0,1.0,97,0.00,,,0.00,weatherlink.com 1.10,2013-08-07 11:15:00,
2013-08-07 07:30:00,77.4,77.0,29.93,ENE,57,1.0,2.0,97,0.00,,,0.00,weatherlink.com 1.10,2013-08-07 11:30:00,
2013-08-07 07:45:00,77.6,77.0,29.94,ENE,57,0.0,0.0,97,0.00,,,0.00,weatherlink.com 1.10,2013-08-07 11:45:00,
2013-08-07 08:00:00,78.1,77.0,29.94,ENE,57,0.0,1.0,97,0.00,,,0.00,weatherlink.com 1.10,2013-08-07 12:00:00,
2013-08-07 08:15:00,78.7,78.0,29.94,ENE,57,0.0,3.0,97,0.00,,,0.00,weatherlink.com 1.10,2013-08-07 12:15:00,
2013-08-07 08:31:00,79.3,78.0,29.94,ENE,57,0.0,3.0,96,0.00,,,0.00,weatherlink.com 1.10,2013-08-07 12:31:00,
2013-08-07 08:46:00,80.3,79.0,29.94,NE,49,1.0,5.0,96,0.00,,,0.00,weatherlink.com 1.10,2013-08-07 12:46:00,
2013-08-07 09:01:00,81.3,79.0,29.95,NE,49,2.0,7.0,93,0.00,,,0.00,weatherlink.com 1.10,2013-08-07 13:01:00,
2013-08-07 09:16:00,82.3,79.0,29.95,NE,35,1.0,4.0,90,0.00,,,0.00,weatherlink.com 1.10,2013-08-07 13:16:00,
2013-08-07 09:31:00,82.6,78.0,29.95,NE,47,0.0,3.0,87,0.00,,,0.00,weatherlink.com 1.10,2013-08-07 13:31:00,
2013-08-07 09:46:00,83.4,78.0,29.95,South,178,0.0,3.0,83,0.00,,,0.00,weatherlink.com 1.10,2013-08-07 13:46:00,
2013-08-07 10:01:00,84.0,79.0,29.96,NE,44,0.0,4.0,84,0.00,,,0.00,weatherlink.com 1.10,2013-08-07 14:01:00,
2013-08-07 10:16:00,85.1,79.0,29.96,NE,44,0.0,3.0,83,0.00,,,0.00,weatherlink.com 1.10,2013-08-07 14:16:00,
2013-08-07 10:31:00,84.9,79.0,29.96,NE,46,2.0,4.0,81,0.00,,,0.00,weatherlink.com 1.10,2013-08-07 14:31:00,
2013-08-07 10:46:00,86.1,79.0,29.96,ENE,76,1.0,4.0,80,0.00,,,0.00,weatherlink.com 1.10,2013-08-07 14:46:00,
2013-08-07 11:01:00,85.9,79.0,29.96,South,184,0.0,4.0,79,0.00,,,0.00,weatherlink.com 1.10,2013-08-07 15:01:00,
2013-08-07 11:16:00,86.3,78.0,29.96,NW,308,0.0,3.0,77,0.00,,,0.00,weatherlink.com 1.10,2013-08-07 15:16:00,
2013-08-07 11:31:00,87.2,78.0,29.96,NNE,30,4.0,4.0,74,0.00,,,0.00,weatherlink.com 1.10,2013-08-07 15:31:00,
2013-08-07 11:46:00,87.9,77.0,29.96,SSW,202,0.0,7.0,71,0.00,,,0.00,weatherlink.com 1.10,2013-08-07 15:46:00,
2013-08-07 12:01:00,88.4,79.0,29.96,SSW,208,0.0,6.0,73,0.00,,,0.00,weatherlink.com 1.10,2013-08-07 16:01:00,
2013-08-07 12:16:00,88.1,79.0,29.95,East,94,2.0,4.0,74,0.00,,,0.00,weatherlink.com 1.10,2013-08-07 16:16:00,
2013-08-07 12:31:00,89.2,79.0,29.95,NE,34,1.0,4.0,72,0.00,,,0.00,weatherlink.com 1.10,2013-08-07 16:31:00,
2013-08-07 12:46:00,89.4,78.0,29.95,NNE,32,0.0,4.0,70,0.00,,,0.00,weatherlink.com 1.10,2013-08-07 16:46:00,
2013-08-07 13:01:00,89.8,80.0,29.94,NE,49,0.0,5.0,73,0.00,,,0.00,weatherlink.com 1.10,2013-08-07 17:01:00,
2013-08-07 13:16:00,89.7,77.0,29.93,NE,56,0.0,4.0,66,0.00,,,0.00,weatherlink.com 1.10,2013-08-07 17:16:00,
2013-08-07 13:31:00,90.4,79.0,29.93,NE,35,0.0,3.0,69,0.00,,,0.00,weatherlink.com 1.10,2013-08-07 17:31:00,
2013-08-07 13:46:00,91.1,78.0,29.93,NE,44,2.0,6.0,65,0.00,,,0.00,weatherlink.com 1.10,2013-08-07 17:46:00,
2013-08-07 14:01:00,91.0,78.0,29.93,ENE,61,1.0,5.0,65,0.00,,,0.00,weatherlink.com 1.10,2013-08-07 18:01:00,
2013-08-07 14:16:00,91.4,79.0,29.92,SSW,202,0.0,3.0,66,0.00,,,0.00,weatherlink.com 1.10,2013-08-07 18:16:00,
2013-08-07 14:31:00,92.1,78.0,29.91,WSW,244,0.0,4.0,64,0.00,,,0.00,weatherlink.com 1.10,2013-08-07 18:31:00,
2013-08-07 14:46:00,92.0,77.0,29.91,ENE,74,2.0,4.0,62,0.00,,,0.00,weatherlink.com 1.10,2013-08-07 18:46:00,
2013-08-07 15:01:00,92.4,79.0,29.91,East,86,1.0,5.0,64,0.00,,,0.00,weatherlink.com 1.10,2013-08-07 19:01:00,
2013-08-07 15:16:00,92.9,78.0,29.91,NE,37,2.0,4.0,63,0.00,,,0.00,weatherlink.com 1.10,2013-08-07 19:16:00,
2013-08-07 15:31:00,93.2,79.0,29.90,NE,44,0.0,3.0,64,0.00,,,0.00,weatherlink.com 1.10,2013-08-07 19:31:00,
2013-08-07 15:46:00,92.0,76.0,29.89,NE,51,2.0,7.0,59,0.00,,,0.00,weatherlink.com 1.10,2013-08-07 19:46:00,
2013-08-07 16:01:00,92.9,76.0,29.89,NE,38,3.0,8.0,59,0.00,,,0.00,weatherlink.com 1.10,2013-08-07 20:01:00,
2013-08-07 16:16:00,89.8,77.0,29.89,NNE,19,2.0,6.0,67,0.00,,,0.00,weatherlink.com 1.10,2013-08-07 20:16:00,
2013-08-07 16:32:00,87.8,79.0,29.89,ENE,78,1.0,6.0,74,0.00,,,0.00,weatherlink.com 1.10,2013-08-07 20:32:00,
2013-08-07 16:47:00,86.8,78.0,29.89,East,85,5.0,11.0,74,0.00,,,0.00,weatherlink.com 1.10,2013-08-07 20:47:00,
2013-08-07 17:02:00,86.4,78.0,29.91,East,91,2.0,10.0,75,0.00,,,0.00,weatherlink.com 1.10,2013-08-07 21:02:00,
2013-08-07 17:17:00,83.1,75.0,29.91,ENE,65,2.0,12.0,76,0.00,,,0.00,weatherlink.com 1.10,2013-08-07 21:17:00,
2013-08-07 17:32:00,80.5,73.0,29.91,NE,47,1.0,7.0,79,0.00,,,0.00,weatherlink.com 1.10,2013-08-07 21:32:00,
2013-08-07 17:47:00,79.9,74.0,29.92,ENE,59,0.0,2.0,81,0.00,,,0.00,weatherlink.com 1.10,2013-08-07 21:47:00,
2013-08-07 18:02:00,80.4,73.0,29.90,ENE,59,0.0,1.0,78,0.00,,,0.00,weatherlink.com 1.10,2013-08-07 22:02:00,
2013-08-07 18:17:00,81.1,73.0,29.90,ENE,59,0.0,1.0,76,0.00,,,0.00,weatherlink.com 1.10,2013-08-07 22:17:00,
2013-08-07 18:32:00,81.1,74.0,29.90,East,79,3.0,3.0,80,0.00,,,0.00,weatherlink.com 1.10,2013-08-07 22:32:00,
2013-08-07 18:47:00,80.6,74.0,29.90,East,80,0.0,2.0,81,0.00,,,0.00,weatherlink.com 1.10,2013-08-07 22:47:00,
2013-08-07 19:02:00,80.6,75.0,29.91,South,190,2.0,4.0,82,0.00,,,0.00,weatherlink.com 1.10,2013-08-07 23:02:00,
2013-08-07 19:17:00,80.3,75.0,29.91,South,176,0.0,2.0,84,0.00,,,0.00,weatherlink.com 1.10,2013-08-07 23:17:00,
2013-08-07 19:32:00,80.2,75.0,29.93,NNE,30,0.0,1.0,85,0.00,,,0.00,weatherlink.com 1.10,2013-08-07 23:32:00,
2013-08-07 19:47:00,80.1,75.0,29.93,NE,45,0.0,0.0,85,0.00,,,0.00,weatherlink.com 1.10,2013-08-07 23:47:00,
2013-08-07 20:02:00,80.0,75.0,29.92,NE,45,0.0,0.0,85,0.00,,,0.00,weatherlink.com 1.10,2013-08-08 00:02:00,
2013-08-07 20:17:00,79.8,75.0,29.93,NE,45,0.0,0.0,86,0.00,,,0.00,weatherlink.com 1.10,2013-08-08 00:17:00,
2013-08-07 20:32:00,79.5,75.0,29.93,NE,45,0.0,0.0,86,0.00,,,0.00,weatherlink.com 1.10,2013-08-08 00:32:00,
2013-08-07 20:47:00,79.3,75.0,29.93,NE,45,0.0,0.0,87,0.00,,,0.00,weatherlink.com 1.10,2013-08-08 00:47:00,
2013-08-07 21:01:00,78.6,75.0,29.93,NE,45,1.0,2.0,89,0.00,,,0.00,weatherlink.com 1.10,2013-08-08 01:01:00,
2013-08-07 21:17:00,78.1,75.0,29.94,NE,55,1.0,3.0,89,0.00,,,0.00,weatherlink.com 1.10,2013-08-08 01:17:00,
2013-08-07 21:32:00,77.7,75.0,29.94,NE,55,0.0,3.0,90,0.00,,,0.00,weatherlink.com 1.10,2013-08-08 01:32:00,
2013-08-07 21:47:00,77.7,75.0,29.95,NE,55,0.0,0.0,90,0.00,,,0.00,weatherlink.com 1.10,2013-08-08 01:47:00,
2013-08-07 22:02:00,77.5,74.0,29.95,NE,55,0.0,0.0,90,0.00,,,0.00,weatherlink.com 1.10,2013-08-08 02:02:00,
2013-08-07 22:17:00,77.3,75.0,29.95,NE,55,0.0,0.0,91,0.00,,,0.00,weatherlink.com 1.10,2013-08-08 02:17:00,
2013-08-07 22:32:00,77.2,75.0,29.95,NE,55,0.0,0.0,92,0.00,,,0.00,weatherlink.com 1.10,2013-08-08 02:32:00,
2013-08-07 22:47:00,77.1,75.0,29.95,NE,55,0.0,0.0,92,0.00,,,0.00,weatherlink.com 1.10,2013-08-08 02:47:00,
2013-08-07 23:02:00,76.9,75.0,29.95,NE,55,0.0,0.0,93,0.00,,,0.00,weatherlink.com 1.10,2013-08-08 03:02:00,
2013-08-07 23:17:00,76.9,75.0,29.95,NE,55,0.0,0.0,93,0.00,,,0.00,weatherlink.com 1.10,2013-08-08 03:17:00,
2013-08-07 23:32:00,77.0,75.0,29.96,NE,55,0.0,0.0,93,0.00,,,0.00,weatherlink.com 1.10,2013-08-08 03:32:00,
2013-08-07 23:47:00,77.3,76.0,29.95,NE,55,0.0,0.0,94,0.00,,,0.00,weatherlink.com 1.10,2013-08-08 03:47:00,